Minna Airport

DNMN · Niger, 尼日利亚

罗盘
风向 的 风向 210° Minna Airport 5/23
风: 5 kt, 2 beaufort

5 kt

1 kt
改变
0 ft 1.000 2.000 3.000 4.000 5.000
Cloud Cloud Cloud Cloud
SCT 800
METAR DNMN 250500Z 21005KT 9999 SCT008 24/22 Q1013

METAR Minna Airport - DNMN/MXJ

Minna Airport是,尼日利亚中的中型机场。 该机场位于纬度9,65234和经度6,46235。 该机场有一条跑道: 5/23. 本场的ICAO机场代码为DNMN。 该机场的IATA代码为MXJ。 机场在Kano FIR中。

该航空气象观测是针对Minna Airport在2024年5月25日 06:00, 当地时间进行的。

机场观察

风向为210°,速度为5 kt。

可见度为10 km 或者更多。

有疏云,零星散落的云朵在800 ft的高度。 没有观察到天花板。

温度和风寒是24 °C。 露点为22 °C,相对湿度为89%。 海平面上的气压为1013 hPa (QNH)。

白天

今天,太阳从06:12升起,在18:49降落。 这适用于Minna Airport,世界夏令时可能有所不同。 当地时间与世界标准时间之间的时差为+1 小时。 夏令时目前正在进行中。

公司介绍

我们没有关于这个机场的公司信息。

体会

到Vliegles.nl去找飞行课程,跳伞和其他飞行体验。 浏览页面,了解Minna Airport附近所有可用的活动。 你也可以使用搜索功能来寻找你所在地附近的特定飞行课程、跳伞或其他飞行体验。

跑道

Id 标题 侧风 逆风 侧风 %
5/23 045°-225° 1 kt 5 kt 26 %

逆风成分最大的方向会被突出显示,并用于横风计算。 这并不一定意味着这个方向在使用。

乌云

800 ft SCT 疏云,零星散落的云朵

温度 & 天气

温度 24 °C
露点 22 °C
相对湿度 89%
Kp-index 1 (0-9)

白天

日出
06:12
中午
12:31
日落
18:49 (10:20)

小工具

你想在你的网站上有一个关于Minna Airport的当前航空天气(METAR)的小部件吗?

显示HTML代码
报告变更